sensor_id;sensor_type;location;lat;lon;timestamp;pressure;altitude;pressure_sealevel;temperature;humidity
12913;BME280;6524;51.368;11.984;2023-07-13T04:03:15;155969.28;;;14.99;55.37
12913;BME280;6524;51.368;11.984;2023-07-13T04:08:16;156023.03;;;15.20;55.65
12913;BME280;6524;51.368;11.984;2023-07-13T04:13:18;155995.47;;;15.09;56.20
12913;BME280;6524;51.368;11.984;2023-07-13T04:18:18;155973.25;;;15.01;56.04
12913;BME280;6524;51.368;11.984;2023-07-13T04:23:19;156051.81;;;15.31;55.93
12913;BME280;6524;51.368;11.984;2023-07-13T04:28:22;156151.50;;;15.70;54.57
12913;BME280;6524;51.368;11.984;2023-07-13T04:33:23;156036.16;;;15.25;56.42
12913;BME280;6524;51.368;11.984;2023-07-13T04:38:26;156067.56;;;15.38;56.38
12913;BME280;6524;51.368;11.984;2023-07-13T04:43:28;156064.94;;;15.37;55.98
12913;BME280;6524;51.368;11.984;2023-07-13T04:48:28;156118.69;;;15.58;56.07
12913;BME280;6524;51.368;11.984;2023-07-13T04:53:29;156142.28;;;15.67;55.96
12913;BME280;6524;51.368;11.984;2023-07-13T04:58:29;156120.00;;;15.58;56.20
12913;BME280;6524;51.368;11.984;2023-07-13T05:03:30;156156.75;;;15.72;56.49
12913;BME280;6524;51.368;11.984;2023-07-13T05:08:31;156200.00;;;15.89;55.88
12913;BME280;6524;51.368;11.984;2023-07-13T05:13:32;156240.63;;;16.05;54.99
12913;BME280;6524;51.368;11.984;2023-07-13T05:18:33;156290.44;;;16.24;54.83
12913;BME280;6524;51.368;11.984;2023-07-13T05:23:34;156394.09;;;16.65;53.89
12913;BME280;6524;51.368;11.984;2023-07-13T05:28:35;156521.38;;;17.14;53.11
12913;BME280;6524;51.368;11.984;2023-07-13T05:33:35;156573.84;;;17.35;51.45
12913;BME280;6524;51.368;11.984;2023-07-13T05:38:36;156655.22;;;17.67;50.67
12913;BME280;6524;51.368;11.984;2023-07-13T05:43:36;156732.69;;;17.97;50.41
12913;BME280;6524;51.368;11.984;2023-07-13T05:48:36;156731.38;;;17.96;49.87
12913;BME280;6524;51.368;11.984;2023-07-13T05:53:37;156878.44;;;18.53;49.07
12913;BME280;6524;51.368;11.984;2023-07-13T05:58:38;156999.25;;;19.00;47.94
12913;BME280;6524;51.368;11.984;2023-07-13T06:03:38;156959.84;;;18.85;47.30
12913;BME280;6524;51.368;11.984;2023-07-13T06:08:39;156984.78;;;18.95;47.40
12913;BME280;6524;51.368;11.984;2023-07-13T06:13:39;156957.25;;;18.84;47.39
12913;BME280;6524;51.368;11.984;2023-07-13T06:18:40;157104.38;;;19.41;46.91
12913;BME280;6524;51.368;11.984;2023-07-13T06:23:41;157143.81;;;19.57;47.06
12913;BME280;6524;51.368;11.984;2023-07-13T06:28:42;157275.25;;;20.08;44.62
12913;BME280;6524;51.368;11.984;2023-07-13T06:33:43;157343.63;;;20.34;44.10
12913;BME280;6524;51.368;11.984;2023-07-13T06:38:43;157379.13;;;20.48;40.87
12913;BME280;6524;51.368;11.984;2023-07-13T06:43:44;157446.22;;;20.74;39.78
12913;BME280;6524;51.368;11.984;2023-07-13T06:48:44;157435.66;;;20.70;40.43
12913;BME280;6524;51.368;11.984;2023-07-13T06:53:44;157493.56;;;20.93;38.72
12913;BME280;6524;51.368;11.984;2023-07-13T06:58:45;157598.81;;;21.34;38.01
12913;BME280;6524;51.368;11.984;2023-07-13T07:03:45;157481.69;;;20.88;37.50
12913;BME280;6524;51.368;11.984;2023-07-13T07:08:47;157501.44;;;20.96;37.03
12913;BME280;6524;51.368;11.984;2023-07-13T07:13:47;157552.75;;;21.16;36.06
12913;BME280;6524;51.368;11.984;2023-07-13T07:18:48;157572.47;;;21.23;35.77
12913;BME280;6524;51.368;11.984;2023-07-13T07:23:48;157535.66;;;21.09;35.87
12913;BME280;6524;51.368;11.984;2023-07-13T07:28:49;157705.38;;;21.75;35.15
12913;BME280;6524;51.368;11.984;2023-07-13T07:33:49;157790.88;;;22.08;34.83
12913;BME280;6524;51.368;11.984;2023-07-13T07:38:50;157723.78;;;21.82;35.16
12913;BME280;6524;51.368;11.984;2023-07-13T07:43:50;158014.72;;;22.95;33.38
12913;BME280;6524;51.368;11.984;2023-07-13T07:48:50;158230.72;;;23.79;32.33
12913;BME280;6524;51.368;11.984;2023-07-13T07:53:50;158267.63;;;23.93;32.16
12913;BME280;6524;51.368;11.984;2023-07-13T07:58:52;158544.44;;;25.01;30.64
12913;BME280;6524;51.368;11.984;2023-07-13T08:03:52;158120.09;;;23.36;32.00
12913;BME280;6524;51.368;11.984;2023-07-13T08:08:52;158106.91;;;23.31;32.11
12913;BME280;6524;51.368;11.984;2023-07-13T08:13:52;158158.28;;;23.51;32.54
12913;BME280;6524;51.368;11.984;2023-07-13T08:18:53;157938.34;;;22.65;33.24
12913;BME280;6524;51.368;11.984;2023-07-13T08:23:53;158042.38;;;23.06;33.45
12913;BME280;6524;51.368;11.984;2023-07-13T08:28:53;158027.91;;;23.00;33.29
12913;BME280;6524;51.368;11.984;2023-07-13T08:33:54;158307.13;;;24.09;31.45
12913;BME280;6524;51.368;11.984;2023-07-13T08:38:54;158254.44;;;23.88;31.05
12913;BME280;6524;51.368;11.984;2023-07-13T08:43:58;158317.72;;;24.13;31.19
12913;BME280;6524;51.368;11.984;2023-07-13T08:49:12;158128.00;;;23.39;32.11
12913;BME280;6524;51.368;11.984;2023-07-13T08:54:27;158354.56;;;24.27;31.30
12913;BME280;6524;51.368;11.984;2023-07-13T08:59:30;158278.19;;;23.97;31.81
12913;BME280;6524;51.368;11.984;2023-07-13T09:04:37;158096.34;;;23.27;32.28
12913;BME280;6524;51.368;11.984;2023-07-13T09:15:01;157635.59;;;21.48;35.27
12913;BME280;6524;51.368;11.984;2023-07-13T09:20:20;157663.25;;;21.59;35.59
12913;BME280;6524;51.368;11.984;2023-07-13T09:25:34;157627.72;;;21.45;36.30
12913;BME280;6524;51.368;11.984;2023-07-13T09:30:43;157564.56;;;21.20;36.93
12913;BME280;6524;51.368;11.984;2023-07-13T09:35:44;157556.69;;;21.17;36.69
12913;BME280;6524;51.368;11.984;2023-07-13T09:45:55;157593.53;;;21.32;36.14
12913;BME280;6524;51.368;11.984;2023-07-13T09:50:55;157704.06;;;21.74;34.41
12913;BME280;6524;51.368;11.984;2023-07-13T09:55:57;157769.84;;;22.00;33.00
12913;BME280;6524;51.368;11.984;2023-07-13T10:01:00;157954.13;;;22.72;31.90
12913;BME280;6524;51.368;11.984;2023-07-13T10:06:19;158109.53;;;23.32;30.36
12913;BME280;6524;51.368;11.984;2023-07-13T10:11:26;158096.34;;;23.27;30.68
12913;BME280;6524;51.368;11.984;2023-07-13T10:16:31;158054.22;;;23.10;29.85
12913;BME280;6524;51.368;11.984;2023-07-13T10:21:46;158122.75;;;23.37;28.78
12913;BME280;6524;51.368;11.984;2023-07-13T10:26:58;158259.72;;;23.90;28.73
12913;BME280;6524;51.368;11.984;2023-07-13T10:32:00;158067.41;;;23.16;28.96
12913;BME280;6524;51.368;11.984;2023-07-13T10:37:01;157988.41;;;22.85;30.53
12913;BME280;6524;51.368;11.984;2023-07-13T10:42:06;158210.94;;;23.71;29.47
12913;BME280;6524;51.368;11.984;2023-07-13T10:47:14;158230.72;;;23.79;27.26
12913;BME280;6524;51.368;11.984;2023-07-13T10:52:40;158201.72;;;23.68;27.39
12913;BME280;6524;51.368;11.984;2023-07-13T10:57:42;158473.22;;;24.73;27.51
12913;BME280;6524;51.368;11.984;2023-07-13T11:02:43;158547.06;;;25.02;26.95
12913;BME280;6524;51.368;11.984;2023-07-13T11:08:11;158628.75;;;25.33;27.01
12913;BME280;6524;51.368;11.984;2023-07-13T11:18:52;158560.25;;;25.07;26.39
12913;BME280;6524;51.368;11.984;2023-07-13T11:24:01;158362.47;;;24.30;27.42
12913;BME280;6524;51.368;11.984;2023-07-13T11:29:25;158396.75;;;24.43;26.48
12913;BME280;6524;51.368;11.984;2023-07-13T11:34:30;158460.03;;;24.68;26.18
12913;BME280;6524;51.368;11.984;2023-07-13T11:39:37;158477.16;;;24.75;26.11
12913;BME280;6524;51.368;11.984;2023-07-13T11:44:44;158660.41;;;25.46;24.43
12913;BME280;6524;51.368;11.984;2023-07-13T11:49:49;158444.22;;;24.62;26.02
12913;BME280;6524;51.368;11.984;2023-07-13T11:54:57;158340.06;;;24.21;26.42
12913;BME280;6524;51.368;11.984;2023-07-13T12:00:09;158549.69;;;25.03;26.80
12913;BME280;6524;51.368;11.984;2023-07-13T12:05:13;158583.97;;;25.16;26.02
12913;BME280;6524;51.368;11.984;2023-07-13T12:10:27;158723.75;;;25.70;25.52
12913;BME280;6524;51.368;11.984;2023-07-13T12:15:43;158370.38;;;24.33;25.97
12913;BME280;6524;51.368;11.984;2023-07-13T12:20:45;158307.13;;;24.09;26.70
12913;BME280;6524;51.368;11.984;2023-07-13T12:25:46;158126.69;;;23.39;27.08
12913;BME280;6524;51.368;11.984;2023-07-13T12:30:48;158236.00;;;23.81;27.20
12913;BME280;6524;51.368;11.984;2023-07-13T12:35:51;158320.34;;;24.14;26.55
12913;BME280;6524;51.368;11.984;2023-07-13T12:40:53;158363.78;;;24.31;27.07
12913;BME280;6524;51.368;11.984;2023-07-13T12:46:20;158294.00;;;24.03;27.00
12913;BME280;6524;51.368;11.984;2023-07-13T12:51:27;158226.75;;;23.77;27.35
12913;BME280;6524;51.368;11.984;2023-07-13T12:56:28;158228.09;;;23.78;28.05
12913;BME280;6524;51.368;11.984;2023-07-13T13:01:34;158428.38;;;24.56;26.92
12913;BME280;6524;51.368;11.984;2023-07-13T13:06:37;158602.41;;;25.23;26.22
12913;BME280;6524;51.368;11.984;2023-07-13T13:11:37;158681.56;;;25.54;25.90
12913;BME280;6524;51.368;11.984;2023-07-13T13:16:49;158676.28;;;25.52;25.50
12913;BME280;6524;51.368;11.984;2023-07-13T13:21:50;158776.47;;;25.91;25.44
12913;BME280;6524;51.368;11.984;2023-07-13T13:26:53;158878.06;;;26.30;24.92
12913;BME280;6524;51.368;11.984;2023-07-13T13:31:54;158880.69;;;26.31;24.65
12913;BME280;6524;51.368;11.984;2023-07-13T13:36:55;158678.91;;;25.53;25.13
12913;BME280;6524;51.368;11.984;2023-07-13T13:41:55;158449.50;;;24.64;26.43
12913;BME280;6524;51.368;11.984;2023-07-13T13:46:56;158407.34;;;24.47;26.69
12913;BME280;6524;51.368;11.984;2023-07-13T13:51:57;158556.28;;;25.05;25.67
12913;BME280;6524;51.368;11.984;2023-07-13T13:56:57;158692.09;;;25.58;25.40
12913;BME280;6524;51.368;11.984;2023-07-13T14:01:59;158849.03;;;26.19;24.79
12913;BME280;6524;51.368;11.984;2023-07-13T14:07:00;158743.50;;;25.78;23.72
12913;BME280;6524;51.368;11.984;2023-07-13T14:12:01;158504.84;;;24.85;25.07
12913;BME280;6524;51.368;11.984;2023-07-13T14:17:01;158458.72;;;24.67;25.38
12913;BME280;6524;51.368;11.984;2023-07-13T14:22:01;158479.81;;;24.76;24.97
12913;BME280;6524;51.368;11.984;2023-07-13T14:27:02;158386.19;;;24.39;25.49
12913;BME280;6524;51.368;11.984;2023-07-13T14:32:03;158319.03;;;24.13;26.39
12913;BME280;6524;51.368;11.984;2023-07-13T14:37:05;158354.56;;;24.27;26.61
12913;BME280;6524;51.368;11.984;2023-07-13T14:42:11;158257.09;;;23.89;27.15
12913;BME280;6524;51.368;11.984;2023-07-13T14:47:12;158415.25;;;24.51;26.91
12913;BME280;6524;51.368;11.984;2023-07-13T14:52:23;158438.97;;;24.60;26.42
12913;BME280;6524;51.368;11.984;2023-07-13T14:57:24;158222.81;;;23.76;26.93
12913;BME280;6524;51.368;11.984;2023-07-13T15:02:33;158249.16;;;23.86;27.15
12913;BME280;6524;51.368;11.984;2023-07-13T15:07:34;158275.53;;;23.96;27.42
12913;BME280;6524;51.368;11.984;2023-07-13T15:12:36;158351.94;;;24.26;26.33
12913;BME280;6524;51.368;11.984;2023-07-13T15:17:44;158402.06;;;24.45;27.02
12913;BME280;6524;51.368;11.984;2023-07-13T15:22:46;158470.59;;;24.72;27.21
12913;BME280;6524;51.368;11.984;2023-07-13T15:27:48;158308.50;;;24.09;27.13
12913;BME280;6524;51.368;11.984;2023-07-13T15:32:48;158275.53;;;23.96;27.85
12913;BME280;6524;51.368;11.984;2023-07-13T15:37:49;158351.94;;;24.26;27.62
12913;BME280;6524;51.368;11.984;2023-07-13T15:42:51;158309.81;;;24.10;27.82
12913;BME280;6524;51.368;11.984;2023-07-13T15:47:52;158296.63;;;24.05;28.06
12913;BME280;6524;51.368;11.984;2023-07-13T15:52:55;158275.53;;;23.96;27.92
12913;BME280;6524;51.368;11.984;2023-07-13T15:57:58;158201.72;;;23.68;27.99
12913;BME280;6524;51.368;11.984;2023-07-13T16:02:59;158160.91;;;23.52;28.37
12913;BME280;6524;51.368;11.984;2023-07-13T16:07:59;158258.41;;;23.90;28.63
12913;BME280;6524;51.368;11.984;2023-07-13T16:13:01;158156.97;;;23.50;28.53
12913;BME280;6524;51.368;11.984;2023-07-13T16:18:02;158145.09;;;23.46;28.52
12913;BME280;6524;51.368;11.984;2023-07-13T16:23:03;158106.91;;;23.31;29.07
12913;BME280;6524;51.368;11.984;2023-07-13T16:28:04;158041.03;;;23.05;29.15
12913;BME280;6524;51.368;11.984;2023-07-13T16:33:06;158109.53;;;23.32;28.92
12913;BME280;6524;51.368;11.984;2023-07-13T16:38:16;158128.00;;;23.39;29.13
12913;BME280;6524;51.368;11.984;2023-07-13T16:43:18;158043.69;;;23.06;29.24
12913;BME280;6524;51.368;11.984;2023-07-13T16:48:26;158018.69;;;22.97;29.66
12913;BME280;6524;51.368;11.984;2023-07-13T16:53:30;157947.56;;;22.69;30.10
12913;BME280;6524;51.368;11.984;2023-07-13T16:58:34;157959.38;;;22.74;30.37
12913;BME280;6524;51.368;11.984;2023-07-13T17:03:35;158043.69;;;23.06;30.28
12913;BME280;6524;51.368;11.984;2023-07-13T17:08:36;158022.63;;;22.98;30.35
12913;BME280;6524;51.368;11.984;2023-07-13T17:13:37;158048.94;;;23.08;30.69
12913;BME280;6524;51.368;11.984;2023-07-13T17:18:37;157906.75;;;22.53;31.25
12913;BME280;6524;51.368;11.984;2023-07-13T17:23:42;157854.09;;;22.33;31.09
12913;BME280;6524;51.368;11.984;2023-07-13T17:28:43;157868.56;;;22.38;31.16
12913;BME280;6524;51.368;11.984;2023-07-13T17:33:44;157827.78;;;22.23;31.71
12913;BME280;6524;51.368;11.984;2023-07-13T17:38:48;157790.88;;;22.08;31.20
12913;BME280;6524;51.368;11.984;2023-07-13T17:43:56;157785.63;;;22.06;31.36
12913;BME280;6524;51.368;11.984;2023-07-13T17:48:57;157688.28;;;21.68;32.55
12913;BME280;6524;51.368;11.984;2023-07-13T17:53:58;157632.97;;;21.47;32.48
12913;BME280;6524;51.368;11.984;2023-07-13T17:58:59;157548.78;;;21.14;33.31
12913;BME280;6524;51.368;11.984;2023-07-13T18:03:59;157583.00;;;21.27;32.99
12913;BME280;6524;51.368;11.984;2023-07-13T18:09:01;157588.25;;;21.29;32.87
12913;BME280;6524;51.368;11.984;2023-07-13T18:14:04;157567.25;;;21.21;33.16
12913;BME280;6524;51.368;11.984;2023-07-13T18:19:30;157450.13;;;20.76;33.32
12913;BME280;6524;51.368;11.984;2023-07-13T18:24:33;157530.41;;;21.07;33.35
12913;BME280;6524;51.368;11.984;2023-07-13T18:29:34;157454.09;;;20.77;36.18
12913;BME280;6524;51.368;11.984;2023-07-13T18:34:40;157475.09;;;20.86;37.56
12913;BME280;6524;51.368;11.984;2023-07-13T18:39:51;157329.13;;;20.29;39.50
12913;BME280;6524;51.368;11.984;2023-07-13T18:44:52;157317.34;;;20.24;40.44
12913;BME280;6524;51.368;11.984;2023-07-13T18:49:52;157225.31;;;19.88;41.57
12913;BME280;6524;51.368;11.984;2023-07-13T18:54:56;157205.63;;;19.81;41.69
12913;BME280;6524;51.368;11.984;2023-07-13T18:59:56;157180.63;;;19.71;42.05
12913;BME280;6524;51.368;11.984;2023-07-13T19:04:58;157099.16;;;19.39;42.55
12913;BME280;6524;51.368;11.984;2023-07-13T19:10:02;157053.19;;;19.21;42.96
12913;BME280;6524;51.368;11.984;2023-07-13T19:15:10;156995.34;;;18.99;43.64
12913;BME280;6524;51.368;11.984;2023-07-13T19:20:20;156917.84;;;18.69;44.30
12913;BME280;6524;51.368;11.984;2023-07-13T19:25:23;156870.56;;;18.50;44.58
12913;BME280;6524;51.368;11.984;2023-07-13T19:30:25;156818.03;;;18.30;45.21
12913;BME280;6524;51.368;11.984;2023-07-13T19:35:25;156783.91;;;18.17;46.10
12913;BME280;6524;51.368;11.984;2023-07-13T19:40:28;156699.88;;;17.84;46.59
12913;BME280;6524;51.368;11.984;2023-07-13T19:45:30;156734.00;;;17.97;46.54
12913;BME280;6524;51.368;11.984;2023-07-13T19:50:32;156762.88;;;18.08;46.37
12913;BME280;6524;51.368;11.984;2023-07-13T19:55:41;156757.63;;;18.06;46.36
12913;BME280;6524;51.368;11.984;2023-07-13T20:00:42;156688.03;;;17.79;46.60
12913;BME280;6524;51.368;11.984;2023-07-13T20:05:43;156640.78;;;17.61;47.51
12913;BME280;6524;51.368;11.984;2023-07-13T20:10:52;156614.50;;;17.51;47.74
12913;BME280;6524;51.368;11.984;2023-07-13T20:15:58;156670.94;;;17.73;47.32
12913;BME280;6524;51.368;11.984;2023-07-13T20:20:59;156619.78;;;17.53;48.36
12913;BME280;6524;51.368;11.984;2023-07-13T20:26:00;156555.47;;;17.28;48.64
12913;BME280;6524;51.368;11.984;2023-07-13T20:31:04;156458.34;;;16.90;49.25
12913;BME280;6524;51.368;11.984;2023-07-13T20:36:11;156387.53;;;16.62;49.83
12913;BME280;6524;51.368;11.984;2023-07-13T20:41:12;156328.47;;;16.39;50.93
12913;BME280;6524;51.368;11.984;2023-07-13T20:46:14;156342.97;;;16.45;50.43
12913;BME280;6524;51.368;11.984;2023-07-13T20:51:17;156395.41;;;16.65;50.41
12913;BME280;6524;51.368;11.984;2023-07-13T20:56:20;156264.25;;;16.14;51.38
12913;BME280;6524;51.368;11.984;2023-07-13T21:01:33;156196.03;;;15.88;52.20
12913;BME280;6524;51.368;11.984;2023-07-13T21:06:37;156236.69;;;16.04;51.91
12913;BME280;6524;51.368;11.984;2023-07-13T21:11:37;156279.97;;;16.20;51.55
12913;BME280;6524;51.368;11.984;2023-07-13T21:16:40;156219.66;;;15.97;52.37
12913;BME280;6524;51.368;11.984;2023-07-13T21:21:40;156177.72;;;15.81;52.94
12913;BME280;6524;51.368;11.984;2023-07-13T21:26:40;156140.97;;;15.66;53.08
12913;BME280;6524;51.368;11.984;2023-07-13T21:31:41;156088.53;;;15.46;53.74
12913;BME280;6524;51.368;11.984;2023-07-13T21:36:42;156150.19;;;15.70;53.71
12913;BME280;6524;51.368;11.984;2023-07-13T21:41:42;156025.63;;;15.21;54.52
12913;BME280;6524;51.368;11.984;2023-07-13T21:46:43;156091.16;;;15.47;54.45
12913;BME280;6524;51.368;11.984;2023-07-13T21:51:44;156004.69;;;15.13;55.22
12913;BME280;6524;51.368;11.984;2023-07-13T21:56:44;156041.34;;;15.27;54.82
12913;BME280;6524;51.368;11.984;2023-07-13T22:01:45;155941.75;;;14.89;55.93
12913;BME280;6524;51.368;11.984;2023-07-13T22:06:45;155940.44;;;14.88;56.15
12913;BME280;6524;51.368;11.984;2023-07-13T22:11:46;155944.38;;;14.90;55.95
12913;BME280;6524;51.368;11.984;2023-07-13T22:16:47;155842.19;;;14.50;56.48
12913;BME280;6524;51.368;11.984;2023-07-13T22:21:48;155829.13;;;14.45;56.60
12913;BME280;6524;51.368;11.984;2023-07-13T22:26:49;155831.72;;;14.46;56.74
12913;BME280;6524;51.368;11.984;2023-07-13T22:31:52;155885.44;;;14.67;56.15
12913;BME280;6524;51.368;11.984;2023-07-13T22:36:53;155816.00;;;14.39;56.52
12913;BME280;6524;51.368;11.984;2023-07-13T22:41:55;155802.94;;;14.34;56.85
12913;BME280;6524;51.368;11.984;2023-07-13T22:46:56;155761.00;;;14.18;57.14
12913;BME280;6524;51.368;11.984;2023-07-13T22:51:58;155843.53;;;14.50;56.59
12913;BME280;6524;51.368;11.984;2023-07-13T22:56:58;155776.72;;;14.24;56.54
12913;BME280;6524;51.368;11.984;2023-07-13T23:02:00;155671.94;;;13.83;57.90
12913;BME280;6524;51.368;11.984;2023-07-13T23:07:03;155721.66;;;14.03;58.39
12913;BME280;6524;51.368;11.984;2023-07-13T23:12:04;155726.91;;;14.05;59.43
12913;BME280;6524;51.368;11.984;2023-07-13T23:17:10;155685.03;;;13.88;59.68
12913;BME280;6524;51.368;11.984;2023-07-13T23:22:24;155721.66;;;14.03;59.80
12913;BME280;6524;51.368;11.984;2023-07-13T23:27:25;155729.53;;;14.06;60.02
12913;BME280;6524;51.368;11.984;2023-07-13T23:32:26;155724.31;;;14.04;60.35
12913;BME280;6524;51.368;11.984;2023-07-13T23:37:26;155730.88;;;14.06;59.97
12913;BME280;6524;51.368;11.984;2023-07-13T23:42:28;155779.38;;;14.25;59.17
12913;BME280;6524;51.368;11.984;2023-07-13T23:47:29;155711.22;;;13.99;60.55
12913;BME280;6524;51.368;11.984;2023-07-13T23:52:29;155647.06;;;13.74;62.11
12913;BME280;6524;51.368;11.984;2023-07-13T23:57:29;155653.63;;;13.76;62.48
